sensor_id;sensor_type;location;lat;lon;timestamp;P1;durP1;ratioP1;P2;durP2;ratioP2
3663;SDS011;1848;51.042;7.066;2022-08-25T00:01:33;10.00;;;4.23;;
3663;SDS011;1848;51.042;7.066;2022-08-25T00:04:07;4.60;;;4.03;;
3663;SDS011;1848;51.042;7.066;2022-08-25T00:06:39;4.50;;;4.10;;
3663;SDS011;1848;51.042;7.066;2022-08-25T00:09:07;5.30;;;3.93;;
3663;SDS011;1848;51.042;7.066;2022-08-25T00:11:35;4.57;;;4.17;;
3663;SDS011;1848;51.042;7.066;2022-08-25T00:14:05;5.47;;;4.50;;
3663;SDS011;1848;51.042;7.066;2022-08-25T00:16:34;5.60;;;4.77;;
3663;SDS011;1848;51.042;7.066;2022-08-25T00:19:03;5.30;;;4.70;;
3663;SDS011;1848;51.042;7.066;2022-08-25T00:21:32;4.40;;;4.03;;
3663;SDS011;1848;51.042;7.066;2022-08-25T00:23:59;5.77;;;4.47;;
3663;SDS011;1848;51.042;7.066;2022-08-25T00:26:30;4.50;;;4.10;;
3663;SDS011;1848;51.042;7.066;2022-08-25T00:28:57;4.53;;;4.13;;
3663;SDS011;1848;51.042;7.066;2022-08-25T00:31:27;6.63;;;4.83;;
3663;SDS011;1848;51.042;7.066;2022-08-25T00:34:04;4.43;;;4.07;;
3663;SDS011;1848;51.042;7.066;2022-08-25T00:36:33;5.17;;;4.43;;
3663;SDS011;1848;51.042;7.066;2022-08-25T00:39:00;4.97;;;4.47;;
3663;SDS011;1848;51.042;7.066;2022-08-25T00:41:26;6.00;;;5.00;;
3663;SDS011;1848;51.042;7.066;2022-08-25T00:43:58;5.20;;;4.53;;
3663;SDS011;1848;51.042;7.066;2022-08-25T00:46:28;8.43;;;4.90;;
3663;SDS011;1848;51.042;7.066;2022-08-25T00:48:58;4.93;;;4.50;;
3663;SDS011;1848;51.042;7.066;2022-08-25T00:51:30;5.50;;;4.63;;
3663;SDS011;1848;51.042;7.066;2022-08-25T00:54:01;6.27;;;4.97;;
3663;SDS011;1848;51.042;7.066;2022-08-25T00:56:29;5.00;;;4.50;;
3663;SDS011;1848;51.042;7.066;2022-08-25T00:58:56;4.60;;;3.70;;
3663;SDS011;1848;51.042;7.066;2022-08-25T01:01:25;5.10;;;4.47;;
3663;SDS011;1848;51.042;7.066;2022-08-25T01:03:52;6.00;;;4.67;;
3663;SDS011;1848;51.042;7.066;2022-08-25T01:06:19;5.13;;;4.20;;
3663;SDS011;1848;51.042;7.066;2022-08-25T01:08:46;4.63;;;4.27;;
3663;SDS011;1848;51.042;7.066;2022-08-25T01:11:12;5.37;;;4.93;;
3663;SDS011;1848;51.042;7.066;2022-08-25T01:13:40;5.30;;;4.80;;
3663;SDS011;1848;51.042;7.066;2022-08-25T01:16:11;6.20;;;4.60;;
3663;SDS011;1848;51.042;7.066;2022-08-25T01:18:47;5.20;;;4.37;;
3663;SDS011;1848;51.042;7.066;2022-08-25T01:21:18;4.83;;;4.47;;
3663;SDS011;1848;51.042;7.066;2022-08-25T01:23:46;4.90;;;4.50;;
3663;SDS011;1848;51.042;7.066;2022-08-25T01:26:16;6.23;;;5.10;;
3663;SDS011;1848;51.042;7.066;2022-08-25T01:28:56;5.87;;;5.13;;
3663;SDS011;1848;51.042;7.066;2022-08-25T01:31:42;6.47;;;5.27;;
3663;SDS011;1848;51.042;7.066;2022-08-25T01:34:09;5.47;;;4.97;;
3663;SDS011;1848;51.042;7.066;2022-08-25T01:36:40;5.50;;;4.50;;
3663;SDS011;1848;51.042;7.066;2022-08-25T01:39:09;4.87;;;4.57;;
3663;SDS011;1848;51.042;7.066;2022-08-25T01:44:30;8.40;;;4.60;;
3663;SDS011;1848;51.042;7.066;2022-08-25T01:46:58;5.17;;;4.67;;
3663;SDS011;1848;51.042;7.066;2022-08-25T01:49:24;5.40;;;5.00;;
3663;SDS011;1848;51.042;7.066;2022-08-25T01:51:52;4.90;;;4.43;;
3663;SDS011;1848;51.042;7.066;2022-08-25T01:54:22;5.97;;;4.67;;
3663;SDS011;1848;51.042;7.066;2022-08-25T01:56:49;7.60;;;5.13;;
3663;SDS011;1848;51.042;7.066;2022-08-25T01:59:16;5.80;;;4.53;;
3663;SDS011;1848;51.042;7.066;2022-08-25T02:01:49;5.20;;;4.70;;
3663;SDS011;1848;51.042;7.066;2022-08-25T02:04:24;5.60;;;5.10;;
3663;SDS011;1848;51.042;7.066;2022-08-25T02:06:52;5.40;;;4.80;;
3663;SDS011;1848;51.042;7.066;2022-08-25T02:09:18;7.67;;;5.10;;
3663;SDS011;1848;51.042;7.066;2022-08-25T02:11:45;9.87;;;5.20;;
3663;SDS011;1848;51.042;7.066;2022-08-25T02:14:13;5.00;;;4.47;;
3663;SDS011;1848;51.042;7.066;2022-08-25T02:16:41;5.20;;;4.80;;
3663;SDS011;1848;51.042;7.066;2022-08-25T02:19:11;4.83;;;4.30;;
3663;SDS011;1848;51.042;7.066;2022-08-25T02:21:37;5.80;;;5.00;;
3663;SDS011;1848;51.042;7.066;2022-08-25T02:24:04;7.10;;;5.80;;
3663;SDS011;1848;51.042;7.066;2022-08-25T02:26:32;5.03;;;4.53;;
3663;SDS011;1848;51.042;7.066;2022-08-25T02:28:58;5.63;;;5.00;;
3663;SDS011;1848;51.042;7.066;2022-08-25T02:31:26;5.43;;;5.03;;
3663;SDS011;1848;51.042;7.066;2022-08-25T02:33:53;5.50;;;4.93;;
3663;SDS011;1848;51.042;7.066;2022-08-25T02:36:20;7.60;;;5.00;;
3663;SDS011;1848;51.042;7.066;2022-08-25T02:38:48;5.93;;;5.33;;
3663;SDS011;1848;51.042;7.066;2022-08-25T02:41:16;5.83;;;4.80;;
3663;SDS011;1848;51.042;7.066;2022-08-25T02:43:45;7.40;;;5.40;;
3663;SDS011;1848;51.042;7.066;2022-08-25T02:46:14;5.47;;;5.00;;
3663;SDS011;1848;51.042;7.066;2022-08-25T02:48:41;5.23;;;4.77;;
3663;SDS011;1848;51.042;7.066;2022-08-25T02:51:08;8.07;;;5.20;;
3663;SDS011;1848;51.042;7.066;2022-08-25T02:53:36;5.83;;;5.30;;
3663;SDS011;1848;51.042;7.066;2022-08-25T02:56:07;5.27;;;4.87;;
3663;SDS011;1848;51.042;7.066;2022-08-25T02:58:35;5.40;;;4.90;;
3663;SDS011;1848;51.042;7.066;2022-08-25T03:01:02;10.20;;;5.60;;
3663;SDS011;1848;51.042;7.066;2022-08-25T03:03:30;6.00;;;5.50;;
3663;SDS011;1848;51.042;7.066;2022-08-25T03:05:56;5.50;;;4.97;;
3663;SDS011;1848;51.042;7.066;2022-08-25T03:08:23;5.57;;;5.07;;
3663;SDS011;1848;51.042;7.066;2022-08-25T03:10:50;6.00;;;5.43;;
3663;SDS011;1848;51.042;7.066;2022-08-25T03:13:17;5.27;;;4.77;;
3663;SDS011;1848;51.042;7.066;2022-08-25T03:15:43;5.90;;;5.00;;
3663;SDS011;1848;51.042;7.066;2022-08-25T03:18:10;5.03;;;4.53;;
3663;SDS011;1848;51.042;7.066;2022-08-25T03:20:39;9.60;;;5.10;;
3663;SDS011;1848;51.042;7.066;2022-08-25T03:23:06;5.73;;;5.30;;
3663;SDS011;1848;51.042;7.066;2022-08-25T03:25:32;9.93;;;5.57;;
3663;SDS011;1848;51.042;7.066;2022-08-25T03:28:19;5.73;;;5.23;;
3663;SDS011;1848;51.042;7.066;2022-08-25T03:30:54;8.73;;;5.67;;
3663;SDS011;1848;51.042;7.066;2022-08-25T03:33:21;5.60;;;5.10;;
3663;SDS011;1848;51.042;7.066;2022-08-25T03:35:47;6.47;;;4.80;;
3663;SDS011;1848;51.042;7.066;2022-08-25T03:38:14;7.20;;;4.63;;
3663;SDS011;1848;51.042;7.066;2022-08-25T03:40:42;5.70;;;5.20;;
3663;SDS011;1848;51.042;7.066;2022-08-25T03:43:08;6.07;;;5.43;;
3663;SDS011;1848;51.042;7.066;2022-08-25T03:45:38;7.00;;;5.80;;
3663;SDS011;1848;51.042;7.066;2022-08-25T03:48:06;5.57;;;5.00;;
3663;SDS011;1848;51.042;7.066;2022-08-25T03:50:32;7.97;;;5.20;;
3663;SDS011;1848;51.042;7.066;2022-08-25T03:52:59;5.47;;;4.97;;
3663;SDS011;1848;51.042;7.066;2022-08-25T03:55:26;5.73;;;5.13;;
3663;SDS011;1848;51.042;7.066;2022-08-25T03:57:54;6.23;;;5.63;;
3663;SDS011;1848;51.042;7.066;2022-08-25T04:00:21;6.23;;;5.73;;
3663;SDS011;1848;51.042;7.066;2022-08-25T04:02:48;11.57;;;6.27;;
3663;SDS011;1848;51.042;7.066;2022-08-25T04:05:15;5.97;;;5.30;;
3663;SDS011;1848;51.042;7.066;2022-08-25T04:07:41;6.43;;;5.83;;
3663;SDS011;1848;51.042;7.066;2022-08-25T04:10:08;7.90;;;5.33;;
3663;SDS011;1848;51.042;7.066;2022-08-25T04:12:36;6.67;;;5.53;;
3663;SDS011;1848;51.042;7.066;2022-08-25T04:15:03;6.03;;;5.53;;
3663;SDS011;1848;51.042;7.066;2022-08-25T04:17:31;6.20;;;5.37;;
3663;SDS011;1848;51.042;7.066;2022-08-25T04:19:57;6.97;;;6.03;;
3663;SDS011;1848;51.042;7.066;2022-08-25T04:22:24;6.23;;;5.63;;
3663;SDS011;1848;51.042;7.066;2022-08-25T04:24:54;9.70;;;6.00;;
3663;SDS011;1848;51.042;7.066;2022-08-25T04:27:20;7.60;;;5.90;;
3663;SDS011;1848;51.042;7.066;2022-08-25T04:29:46;8.80;;;5.90;;
3663;SDS011;1848;51.042;7.066;2022-08-25T04:32:13;8.23;;;6.20;;
3663;SDS011;1848;51.042;7.066;2022-08-25T04:34:39;7.53;;;6.07;;
3663;SDS011;1848;51.042;7.066;2022-08-25T04:37:06;6.53;;;5.90;;
3663;SDS011;1848;51.042;7.066;2022-08-25T04:39:33;9.73;;;6.60;;
3663;SDS011;1848;51.042;7.066;2022-08-25T04:42:00;6.73;;;6.03;;
3663;SDS011;1848;51.042;7.066;2022-08-25T04:44:27;12.70;;;6.70;;
3663;SDS011;1848;51.042;7.066;2022-08-25T04:46:55;6.57;;;6.00;;
3663;SDS011;1848;51.042;7.066;2022-08-25T04:49:22;8.70;;;6.27;;
3663;SDS011;1848;51.042;7.066;2022-08-25T04:51:48;7.40;;;6.80;;
3663;SDS011;1848;51.042;7.066;2022-08-25T04:54:15;7.17;;;6.47;;
3663;SDS011;1848;51.042;7.066;2022-08-25T04:56:42;6.70;;;6.10;;
3663;SDS011;1848;51.042;7.066;2022-08-25T04:59:09;6.97;;;5.53;;
3663;SDS011;1848;51.042;7.066;2022-08-25T05:01:38;7.80;;;6.23;;
3663;SDS011;1848;51.042;7.066;2022-08-25T05:04:06;6.57;;;5.97;;
3663;SDS011;1848;51.042;7.066;2022-08-25T05:06:39;6.63;;;6.03;;
3663;SDS011;1848;51.042;7.066;2022-08-25T05:09:06;8.13;;;6.30;;
3663;SDS011;1848;51.042;7.066;2022-08-25T05:11:33;6.80;;;6.13;;
3663;SDS011;1848;51.042;7.066;2022-08-25T05:14:00;10.80;;;5.90;;
3663;SDS011;1848;51.042;7.066;2022-08-25T05:16:27;6.90;;;6.23;;
3663;SDS011;1848;51.042;7.066;2022-08-25T05:18:55;7.20;;;5.70;;
3663;SDS011;1848;51.042;7.066;2022-08-25T05:21:23;8.13;;;6.90;;
3663;SDS011;1848;51.042;7.066;2022-08-25T05:23:55;8.27;;;5.90;;
3663;SDS011;1848;51.042;7.066;2022-08-25T05:26:24;7.13;;;6.40;;
3663;SDS011;1848;51.042;7.066;2022-08-25T05:28:52;7.03;;;6.33;;
3663;SDS011;1848;51.042;7.066;2022-08-25T05:31:20;10.73;;;6.50;;
3663;SDS011;1848;51.042;7.066;2022-08-25T05:33:48;9.10;;;6.10;;
3663;SDS011;1848;51.042;7.066;2022-08-25T05:36:16;11.30;;;6.93;;
3663;SDS011;1848;51.042;7.066;2022-08-25T05:38:44;8.63;;;7.23;;
3663;SDS011;1848;51.042;7.066;2022-08-25T05:41:15;10.00;;;6.87;;
3663;SDS011;1848;51.042;7.066;2022-08-25T05:43:45;8.27;;;6.30;;
3663;SDS011;1848;51.042;7.066;2022-08-25T05:46:14;7.80;;;6.07;;
3663;SDS011;1848;51.042;7.066;2022-08-25T05:48:42;9.10;;;7.60;;
3663;SDS011;1848;51.042;7.066;2022-08-25T05:51:09;13.60;;;7.03;;
3663;SDS011;1848;51.042;7.066;2022-08-25T05:53:36;7.30;;;6.70;;
3663;SDS011;1848;51.042;7.066;2022-08-25T05:56:04;9.20;;;7.10;;
3663;SDS011;1848;51.042;7.066;2022-08-25T05:58:31;9.57;;;7.70;;
3663;SDS011;1848;51.042;7.066;2022-08-25T06:00:58;7.67;;;6.97;;
3663;SDS011;1848;51.042;7.066;2022-08-25T06:03:45;7.33;;;6.47;;
3663;SDS011;1848;51.042;7.066;2022-08-25T06:06:13;7.70;;;6.67;;
3663;SDS011;1848;51.042;7.066;2022-08-25T06:08:42;8.60;;;6.70;;
3663;SDS011;1848;51.042;7.066;2022-08-25T06:11:10;7.43;;;6.70;;
3663;SDS011;1848;51.042;7.066;2022-08-25T06:13:37;7.17;;;6.43;;
3663;SDS011;1848;51.042;7.066;2022-08-25T06:16:04;9.50;;;6.50;;
3663;SDS011;1848;51.042;7.066;2022-08-25T06:18:31;10.43;;;6.20;;
3663;SDS011;1848;51.042;7.066;2022-08-25T06:20:58;7.50;;;6.73;;
3663;SDS011;1848;51.042;7.066;2022-08-25T06:23:24;7.13;;;6.30;;
3663;SDS011;1848;51.042;7.066;2022-08-25T06:25:51;8.40;;;7.60;;
3663;SDS011;1848;51.042;7.066;2022-08-25T06:28:19;7.40;;;6.70;;
3663;SDS011;1848;51.042;7.066;2022-08-25T06:30:46;9.23;;;7.60;;
3663;SDS011;1848;51.042;7.066;2022-08-25T06:33:13;7.77;;;6.80;;
3663;SDS011;1848;51.042;7.066;2022-08-25T06:35:40;7.80;;;7.10;;
3663;SDS011;1848;51.042;7.066;2022-08-25T06:38:08;9.53;;;7.33;;
3663;SDS011;1848;51.042;7.066;2022-08-25T06:40:35;8.43;;;6.70;;
3663;SDS011;1848;51.042;7.066;2022-08-25T06:43:03;7.70;;;6.63;;
3663;SDS011;1848;51.042;7.066;2022-08-25T06:45:33;8.40;;;7.60;;
3663;SDS011;1848;51.042;7.066;2022-08-25T06:48:00;10.90;;;7.37;;
3663;SDS011;1848;51.042;7.066;2022-08-25T06:50:27;8.07;;;7.37;;
3663;SDS011;1848;51.042;7.066;2022-08-25T06:52:53;10.93;;;7.43;;
3663;SDS011;1848;51.042;7.066;2022-08-25T06:55:20;9.13;;;6.97;;
3663;SDS011;1848;51.042;7.066;2022-08-25T06:57:46;15.40;;;8.13;;
3663;SDS011;1848;51.042;7.066;2022-08-25T07:00:13;8.67;;;7.67;;
3663;SDS011;1848;51.042;7.066;2022-08-25T07:02:40;8.40;;;7.70;;
3663;SDS011;1848;51.042;7.066;2022-08-25T07:05:07;7.70;;;6.90;;
3663;SDS011;1848;51.042;7.066;2022-08-25T07:07:38;8.33;;;7.20;;
3663;SDS011;1848;51.042;7.066;2022-08-25T07:10:09;11.60;;;7.20;;
3663;SDS011;1848;51.042;7.066;2022-08-25T07:12:35;9.47;;;7.50;;
3663;SDS011;1848;51.042;7.066;2022-08-25T07:15:02;8.00;;;7.30;;
3663;SDS011;1848;51.042;7.066;2022-08-25T07:17:45;7.30;;;6.60;;
3663;SDS011;1848;51.042;7.066;2022-08-25T07:20:14;7.53;;;6.83;;
3663;SDS011;1848;51.042;7.066;2022-08-25T07:22:41;8.83;;;7.40;;
3663;SDS011;1848;51.042;7.066;2022-08-25T07:25:08;9.20;;;7.33;;
3663;SDS011;1848;51.042;7.066;2022-08-25T07:27:36;7.90;;;7.20;;
3663;SDS011;1848;51.042;7.066;2022-08-25T07:30:07;8.50;;;7.80;;
3663;SDS011;1848;51.042;7.066;2022-08-25T07:32:36;8.60;;;7.70;;
3663;SDS011;1848;51.042;7.066;2022-08-25T07:35:07;7.60;;;6.80;;
3663;SDS011;1848;51.042;7.066;2022-08-25T07:37:41;9.30;;;7.50;;
3663;SDS011;1848;51.042;7.066;2022-08-25T07:40:20;8.70;;;8.00;;
3663;SDS011;1848;51.042;7.066;2022-08-25T07:42:49;10.37;;;6.97;;
3663;SDS011;1848;51.042;7.066;2022-08-25T07:45:16;8.07;;;6.97;;
3663;SDS011;1848;51.042;7.066;2022-08-25T07:47:46;8.60;;;7.50;;
3663;SDS011;1848;51.042;7.066;2022-08-25T07:50:13;9.20;;;8.20;;
3663;SDS011;1848;51.042;7.066;2022-08-25T07:52:39;7.77;;;7.07;;
3663;SDS011;1848;51.042;7.066;2022-08-25T07:55:07;8.30;;;7.10;;
3663;SDS011;1848;51.042;7.066;2022-08-25T07:57:38;7.57;;;6.97;;
3663;SDS011;1848;51.042;7.066;2022-08-25T08:00:05;7.93;;;7.23;;
3663;SDS011;1848;51.042;7.066;2022-08-25T08:02:34;9.17;;;7.17;;
3663;SDS011;1848;51.042;7.066;2022-08-25T08:05:05;8.03;;;7.23;;
3663;SDS011;1848;51.042;7.066;2022-08-25T08:07:34;8.33;;;7.53;;
3663;SDS011;1848;51.042;7.066;2022-08-25T08:10:10;7.80;;;7.00;;
3663;SDS011;1848;51.042;7.066;2022-08-25T08:12:58;10.33;;;8.10;;
3663;SDS011;1848;51.042;7.066;2022-08-25T08:15:24;8.30;;;6.53;;
3663;SDS011;1848;51.042;7.066;2022-08-25T08:17:55;8.50;;;6.80;;
3663;SDS011;1848;51.042;7.066;2022-08-25T08:20:23;8.13;;;7.43;;
3663;SDS011;1848;51.042;7.066;2022-08-25T08:22:49;8.47;;;7.27;;
3663;SDS011;1848;51.042;7.066;2022-08-25T08:25:16;7.50;;;6.90;;
3663;SDS011;1848;51.042;7.066;2022-08-25T08:27:51;7.07;;;6.47;;
3663;SDS011;1848;51.042;7.066;2022-08-25T08:30:20;8.57;;;7.30;;
3663;SDS011;1848;51.042;7.066;2022-08-25T08:32:51;9.23;;;7.57;;
3663;SDS011;1848;51.042;7.066;2022-08-25T08:35:34;11.70;;;6.97;;
3663;SDS011;1848;51.042;7.066;2022-08-25T08:38:00;9.60;;;7.10;;
3663;SDS011;1848;51.042;7.066;2022-08-25T08:40:28;7.10;;;6.30;;
3663;SDS011;1848;51.042;7.066;2022-08-25T08:43:02;7.90;;;6.90;;
3663;SDS011;1848;51.042;7.066;2022-08-25T08:45:48;7.80;;;7.10;;
3663;SDS011;1848;51.042;7.066;2022-08-25T08:48:30;9.50;;;6.70;;
3663;SDS011;1848;51.042;7.066;2022-08-25T08:51:21;7.43;;;6.83;;
3663;SDS011;1848;51.042;7.066;2022-08-25T08:56:28;8.00;;;6.43;;
3663;SDS011;1848;51.042;7.066;2022-08-25T08:59:04;8.50;;;6.70;;
3663;SDS011;1848;51.042;7.066;2022-08-25T09:04:58;6.87;;;6.27;;
3663;SDS011;1848;51.042;7.066;2022-08-25T09:07:34;8.03;;;6.30;;
3663;SDS011;1848;51.042;7.066;2022-08-25T09:10:07;7.43;;;6.73;;
3663;SDS011;1848;51.042;7.066;2022-08-25T09:12:37;6.53;;;5.60;;
3663;SDS011;1848;51.042;7.066;2022-08-25T09:15:27;7.00;;;6.13;;
3663;SDS011;1848;51.042;7.066;2022-08-25T09:18:34;7.20;;;6.00;;
3663;SDS011;1848;51.042;7.066;2022-08-25T09:21:20;8.37;;;6.60;;
3663;SDS011;1848;51.042;7.066;2022-08-25T09:26:39;6.70;;;6.20;;
3663;SDS011;1848;51.042;7.066;2022-08-25T09:29:22;6.40;;;5.63;;
3663;SDS011;1848;51.042;7.066;2022-08-25T09:31:52;6.80;;;6.20;;
3663;SDS011;1848;51.042;7.066;2022-08-25T09:34:24;6.90;;;5.93;;
3663;SDS011;1848;51.042;7.066;2022-08-25T09:36:55;6.17;;;5.67;;
3663;SDS011;1848;51.042;7.066;2022-08-25T09:39:22;6.63;;;6.13;;
3663;SDS011;1848;51.042;7.066;2022-08-25T09:44:19;6.87;;;6.10;;
3663;SDS011;1848;51.042;7.066;2022-08-25T09:47:20;6.20;;;5.70;;
3663;SDS011;1848;51.042;7.066;2022-08-25T09:49:50;6.57;;;6.00;;
3663;SDS011;1848;51.042;7.066;2022-08-25T09:54:54;7.57;;;6.97;;
3663;SDS011;1848;51.042;7.066;2022-08-25T09:57:30;6.33;;;5.63;;
3663;SDS011;1848;51.042;7.066;2022-08-25T10:00:17;7.40;;;5.40;;
3663;SDS011;1848;51.042;7.066;2022-08-25T10:03:09;6.60;;;6.00;;
3663;SDS011;1848;51.042;7.066;2022-08-25T10:05:49;6.47;;;5.67;;
3663;SDS011;1848;51.042;7.066;2022-08-25T10:08:30;8.63;;;5.90;;
3663;SDS011;1848;51.042;7.066;2022-08-25T10:11:06;6.57;;;5.37;;
3663;SDS011;1848;51.042;7.066;2022-08-25T10:13:49;6.63;;;5.93;;
3663;SDS011;1848;51.042;7.066;2022-08-25T10:16:28;7.73;;;5.70;;
3663;SDS011;1848;51.042;7.066;2022-08-25T10:19:23;7.33;;;6.63;;
3663;SDS011;1848;51.042;7.066;2022-08-25T10:24:33;6.83;;;5.67;;
3663;SDS011;1848;51.042;7.066;2022-08-25T10:27:03;6.40;;;5.40;;
3663;SDS011;1848;51.042;7.066;2022-08-25T10:32:44;6.20;;;5.70;;
3663;SDS011;1848;51.042;7.066;2022-08-25T10:35:25;6.37;;;5.77;;
3663;SDS011;1848;51.042;7.066;2022-08-25T10:41:11;6.20;;;5.20;;
3663;SDS011;1848;51.042;7.066;2022-08-25T10:43:42;8.13;;;6.10;;
3663;SDS011;1848;51.042;7.066;2022-08-25T10:46:31;6.80;;;6.10;;
3663;SDS011;1848;51.042;7.066;2022-08-25T10:49:22;7.60;;;6.13;;
3663;SDS011;1848;51.042;7.066;2022-08-25T10:52:02;6.77;;;6.17;;
3663;SDS011;1848;51.042;7.066;2022-08-25T11:05:25;6.77;;;6.10;;
3663;SDS011;1848;51.042;7.066;2022-08-25T11:08:16;6.70;;;6.10;;
3663;SDS011;1848;51.042;7.066;2022-08-25T11:11:12;6.93;;;5.53;;
3663;SDS011;1848;51.042;7.066;2022-08-25T11:13:50;7.00;;;5.70;;
3663;SDS011;1848;51.042;7.066;2022-08-25T11:16:36;8.20;;;5.67;;
3663;SDS011;1848;51.042;7.066;2022-08-25T11:21:49;7.33;;;6.00;;
3663;SDS011;1848;51.042;7.066;2022-08-25T11:26:45;9.30;;;5.90;;
3663;SDS011;1848;51.042;7.066;2022-08-25T11:29:18;8.17;;;6.00;;
3663;SDS011;1848;51.042;7.066;2022-08-25T11:31:48;6.77;;;6.20;;
3663;SDS011;1848;51.042;7.066;2022-08-25T11:34:19;5.30;;;4.90;;
3663;SDS011;1848;51.042;7.066;2022-08-25T11:37:21;6.97;;;6.30;;
3663;SDS011;1848;51.042;7.066;2022-08-25T11:48:27;7.23;;;6.37;;
3663;SDS011;1848;51.042;7.066;2022-08-25T11:51:06;8.90;;;6.50;;
3663;SDS011;1848;51.042;7.066;2022-08-25T11:53:41;6.97;;;6.47;;
3663;SDS011;1848;51.042;7.066;2022-08-25T11:56:10;6.87;;;6.30;;
3663;SDS011;1848;51.042;7.066;2022-08-25T11:58:57;6.80;;;6.30;;
3663;SDS011;1848;51.042;7.066;2022-08-25T12:04:15;8.33;;;6.90;;
3663;SDS011;1848;51.042;7.066;2022-08-25T12:09:32;7.30;;;6.70;;
3663;SDS011;1848;51.042;7.066;2022-08-25T12:15:12;6.60;;;6.20;;
3663;SDS011;1848;51.042;7.066;2022-08-25T12:18:07;7.53;;;6.93;;
3663;SDS011;1848;51.042;7.066;2022-08-25T12:21:08;7.47;;;6.87;;
3663;SDS011;1848;51.042;7.066;2022-08-25T12:23:38;7.50;;;6.90;;
3663;SDS011;1848;51.042;7.066;2022-08-25T12:26:22;7.57;;;6.87;;
3663;SDS011;1848;51.042;7.066;2022-08-25T12:29:03;7.23;;;6.67;;
3663;SDS011;1848;51.042;7.066;2022-08-25T12:34:37;7.70;;;7.10;;
3663;SDS011;1848;51.042;7.066;2022-08-25T12:37:21;7.07;;;6.57;;
3663;SDS011;1848;51.042;7.066;2022-08-25T12:47:46;7.37;;;6.77;;
3663;SDS011;1848;51.042;7.066;2022-08-25T12:53:14;8.23;;;7.43;;
3663;SDS011;1848;51.042;7.066;2022-08-25T12:55:48;7.10;;;6.60;;
3663;SDS011;1848;51.042;7.066;2022-08-25T12:58:20;7.43;;;6.77;;
3663;SDS011;1848;51.042;7.066;2022-08-25T13:01:38;7.20;;;6.60;;
3663;SDS011;1848;51.042;7.066;2022-08-25T13:18:13;7.83;;;6.87;;
3663;SDS011;1848;51.042;7.066;2022-08-25T13:20:46;7.70;;;7.00;;
3663;SDS011;1848;51.042;7.066;2022-08-25T13:23:16;7.20;;;6.60;;
3663;SDS011;1848;51.042;7.066;2022-08-25T13:25:49;8.87;;;6.33;;
3663;SDS011;1848;51.042;7.066;2022-08-25T13:28:34;7.47;;;6.50;;
3663;SDS011;1848;51.042;7.066;2022-08-25T13:31:07;7.53;;;6.30;;
3663;SDS011;1848;51.042;7.066;2022-08-25T13:33:54;6.27;;;5.73;;
3663;SDS011;1848;51.042;7.066;2022-08-25T13:36:25;7.90;;;7.10;;
3663;SDS011;1848;51.042;7.066;2022-08-25T13:39:22;7.13;;;6.63;;
3663;SDS011;1848;51.042;7.066;2022-08-25T13:42:12;8.03;;;6.43;;
3663;SDS011;1848;51.042;7.066;2022-08-25T13:44:40;7.50;;;6.90;;
3663;SDS011;1848;51.042;7.066;2022-08-25T13:47:32;7.00;;;6.40;;
3663;SDS011;1848;51.042;7.066;2022-08-25T13:55:30;7.23;;;6.73;;
3663;SDS011;1848;51.042;7.066;2022-08-25T13:58:24;7.47;;;6.90;;
3663;SDS011;1848;51.042;7.066;2022-08-25T14:01:13;6.90;;;6.30;;
3663;SDS011;1848;51.042;7.066;2022-08-25T14:09:38;6.87;;;6.37;;
3663;SDS011;1848;51.042;7.066;2022-08-25T14:15:03;6.63;;;6.13;;
3663;SDS011;1848;51.042;7.066;2022-08-25T14:17:33;9.27;;;6.20;;
3663;SDS011;1848;51.042;7.066;2022-08-25T14:20:05;7.80;;;6.37;;
3663;SDS011;1848;51.042;7.066;2022-08-25T14:22:42;6.20;;;5.43;;
3663;SDS011;1848;51.042;7.066;2022-08-25T14:25:09;6.90;;;6.20;;
3663;SDS011;1848;51.042;7.066;2022-08-25T14:27:39;6.37;;;5.70;;
3663;SDS011;1848;51.042;7.066;2022-08-25T14:30:27;8.67;;;6.40;;
3663;SDS011;1848;51.042;7.066;2022-08-25T14:32:54;7.33;;;5.73;;
3663;SDS011;1848;51.042;7.066;2022-08-25T14:35:21;6.33;;;5.83;;
3663;SDS011;1848;51.042;7.066;2022-08-25T14:37:48;6.50;;;5.90;;
3663;SDS011;1848;51.042;7.066;2022-08-25T14:40:14;7.43;;;6.13;;
3663;SDS011;1848;51.042;7.066;2022-08-25T14:42:45;6.33;;;5.73;;
3663;SDS011;1848;51.042;7.066;2022-08-25T14:45:13;6.00;;;5.60;;
3663;SDS011;1848;51.042;7.066;2022-08-25T14:47:41;6.73;;;6.23;;
3663;SDS011;1848;51.042;7.066;2022-08-25T14:50:14;6.60;;;6.07;;
3663;SDS011;1848;51.042;7.066;2022-08-25T14:52:46;7.87;;;5.80;;
3663;SDS011;1848;51.042;7.066;2022-08-25T14:55:17;6.50;;;6.00;;
3663;SDS011;1848;51.042;7.066;2022-08-25T14:57:56;6.40;;;5.90;;
3663;SDS011;1848;51.042;7.066;2022-08-25T15:00:23;6.37;;;5.97;;
3663;SDS011;1848;51.042;7.066;2022-08-25T15:02:51;7.10;;;6.50;;
3663;SDS011;1848;51.042;7.066;2022-08-25T15:05:20;6.70;;;6.20;;
3663;SDS011;1848;51.042;7.066;2022-08-25T15:07:50;12.57;;;6.03;;
3663;SDS011;1848;51.042;7.066;2022-08-25T15:10:37;6.53;;;6.07;;
3663;SDS011;1848;51.042;7.066;2022-08-25T15:13:05;6.07;;;5.57;;
3663;SDS011;1848;51.042;7.066;2022-08-25T15:15:32;6.20;;;5.70;;
3663;SDS011;1848;51.042;7.066;2022-08-25T15:18:03;6.30;;;5.80;;
3663;SDS011;1848;51.042;7.066;2022-08-25T15:20:31;6.03;;;5.53;;
3663;SDS011;1848;51.042;7.066;2022-08-25T15:22:57;6.20;;;5.73;;
3663;SDS011;1848;51.042;7.066;2022-08-25T15:25:24;6.00;;;5.60;;
3663;SDS011;1848;51.042;7.066;2022-08-25T15:27:50;5.87;;;5.37;;
3663;SDS011;1848;51.042;7.066;2022-08-25T15:30:17;6.00;;;5.50;;
3663;SDS011;1848;51.042;7.066;2022-08-25T15:32:43;6.13;;;5.63;;
3663;SDS011;1848;51.042;7.066;2022-08-25T15:35:13;6.50;;;6.00;;
3663;SDS011;1848;51.042;7.066;2022-08-25T15:37:40;6.07;;;5.57;;
3663;SDS011;1848;51.042;7.066;2022-08-25T15:40:07;6.10;;;5.60;;
3663;SDS011;1848;51.042;7.066;2022-08-25T15:42:35;7.00;;;5.77;;
3663;SDS011;1848;51.042;7.066;2022-08-25T15:45:08;6.10;;;5.70;;
3663;SDS011;1848;51.042;7.066;2022-08-25T15:47:34;6.97;;;6.30;;
3663;SDS011;1848;51.042;7.066;2022-08-25T15:50:08;6.00;;;5.50;;
3663;SDS011;1848;51.042;7.066;2022-08-25T15:52:40;6.30;;;5.80;;
3663;SDS011;1848;51.042;7.066;2022-08-25T15:55:13;7.30;;;5.90;;
3663;SDS011;1848;51.042;7.066;2022-08-25T15:57:41;7.30;;;5.83;;
3663;SDS011;1848;51.042;7.066;2022-08-25T16:00:08;6.43;;;5.93;;
3663;SDS011;1848;51.042;7.066;2022-08-25T16:02:38;6.60;;;6.00;;
3663;SDS011;1848;51.042;7.066;2022-08-25T16:05:06;6.07;;;5.47;;
3663;SDS011;1848;51.042;7.066;2022-08-25T16:07:33;5.80;;;5.37;;
3663;SDS011;1848;51.042;7.066;2022-08-25T16:10:01;6.40;;;5.90;;
3663;SDS011;1848;51.042;7.066;2022-08-25T16:12:29;6.70;;;5.93;;
3663;SDS011;1848;51.042;7.066;2022-08-25T16:14:56;7.73;;;5.77;;
3663;SDS011;1848;51.042;7.066;2022-08-25T16:17:23;6.57;;;5.97;;
3663;SDS011;1848;51.042;7.066;2022-08-25T16:19:50;7.20;;;4.90;;
3663;SDS011;1848;51.042;7.066;2022-08-25T16:22:16;6.03;;;5.47;;
3663;SDS011;1848;51.042;7.066;2022-08-25T16:24:43;6.00;;;5.60;;
3663;SDS011;1848;51.042;7.066;2022-08-25T16:27:10;5.80;;;5.30;;
3663;SDS011;1848;51.042;7.066;2022-08-25T16:29:38;5.93;;;5.30;;
3663;SDS011;1848;51.042;7.066;2022-08-25T16:32:07;6.47;;;5.70;;
3663;SDS011;1848;51.042;7.066;2022-08-25T16:34:35;5.80;;;5.40;;
3663;SDS011;1848;51.042;7.066;2022-08-25T16:37:02;8.70;;;5.40;;
3663;SDS011;1848;51.042;7.066;2022-08-25T16:39:29;6.70;;;5.60;;
3663;SDS011;1848;51.042;7.066;2022-08-25T16:41:56;5.80;;;5.20;;
3663;SDS011;1848;51.042;7.066;2022-08-25T16:44:23;5.83;;;5.30;;
3663;SDS011;1848;51.042;7.066;2022-08-25T16:46:50;5.80;;;5.30;;
3663;SDS011;1848;51.042;7.066;2022-08-25T16:49:19;5.93;;;5.37;;
3663;SDS011;1848;51.042;7.066;2022-08-25T16:51:49;6.30;;;5.70;;
3663;SDS011;1848;51.042;7.066;2022-08-25T16:54:23;8.20;;;5.60;;
3663;SDS011;1848;51.042;7.066;2022-08-25T16:57:10;6.20;;;5.20;;
3663;SDS011;1848;51.042;7.066;2022-08-25T16:59:36;5.83;;;5.33;;
3663;SDS011;1848;51.042;7.066;2022-08-25T17:02:02;5.60;;;5.20;;
3663;SDS011;1848;51.042;7.066;2022-08-25T17:04:30;7.37;;;5.17;;
3663;SDS011;1848;51.042;7.066;2022-08-25T17:06:57;5.57;;;5.07;;
3663;SDS011;1848;51.042;7.066;2022-08-25T17:09:24;6.37;;;5.87;;
3663;SDS011;1848;51.042;7.066;2022-08-25T17:11:50;6.30;;;5.73;;
3663;SDS011;1848;51.042;7.066;2022-08-25T17:14:21;7.53;;;5.10;;
3663;SDS011;1848;51.042;7.066;2022-08-25T17:16:48;7.10;;;5.10;;
3663;SDS011;1848;51.042;7.066;2022-08-25T17:19:16;6.13;;;5.63;;
3663;SDS011;1848;51.042;7.066;2022-08-25T17:21:43;6.33;;;5.83;;